Time;durP1;ratioP1;P1;durP2;ratioP2;P2;SDS_P1;SDS_P2;PMS_P1;PMS_P2;Temp;Humidity;BMP_temperature;BMP_pressure;BME280_temperature;BME280_humidity;BME280_pressure;Samples;Min_cycle;Max_cycle;Signal;HPM_P1;HPM_P2
2021/12/09 00:02:56;;;;;;;6.20;4.73;;;6.90;99.90;;;;;;10327877;28;20561;-82
2021/12/09 00:07:59;;;;;;;4.63;4.00;;;6.90;99.90;;;;;;10326923;28;20250;-83
2021/12/09 00:13:02;;;;;;;4.20;3.67;;;6.90;99.90;;;;;;10358120;28;20265;-82
2021/12/09 00:18:04;;;;;;;5.73;3.93;;;6.80;99.90;;;;;;10358795;28;20261;-82
2021/12/09 00:23:08;;;;;;;5.77;3.80;;;6.80;99.90;;;;;;10358486;28;20233;-83
2021/12/09 00:28:10;;;;;;;5.97;3.60;;;6.80;99.90;;;;;;10357491;28;20226;-82
2021/12/09 00:33:15;;;;;;;5.70;3.87;;;6.70;99.90;;;;;;10375142;28;20440;-83
2021/12/09 00:38:23;;;;;;;4.60;4.13;;;6.70;99.90;;;;;;10354661;28;20589;-84
2021/12/09 00:43:25;;;;;;;5.20;3.83;;;6.60;99.90;;;;;;10359444;28;20202;-84
2021/12/09 00:48:27;;;;;;;4.00;3.27;;;6.50;99.90;;;;;;10359654;28;20634;-84
2021/12/09 00:53:31;;;;;;;5.63;3.93;;;6.50;99.90;;;;;;10342344;28;20701;-84
2021/12/09 00:58:33;;;;;;;5.60;3.57;;;6.40;99.90;;;;;;10357663;28;20246;-84
2021/12/09 01:03:37;;;;;;;3.17;2.87;;;6.40;99.90;;;;;;10362907;28;20237;-84
2021/12/09 01:08:41;;;;;;;5.73;3.60;;;6.40;99.90;;;;;;10373925;28;20250;-84
2021/12/09 01:13:44;;;;;;;3.50;3.20;;;6.30;99.90;;;;;;10374569;28;20218;-84
2021/12/09 01:18:46;;;;;;;5.27;3.63;;;6.30;99.90;;;;;;10340125;28;20241;-84
2021/12/09 01:23:49;;;;;;;6.37;5.20;;;6.30;99.90;;;;;;10357066;28;20726;-84
2021/12/09 01:28:56;;;;;;;6.10;5.50;;;6.30;99.90;;;;;;10339900;28;20760;-84
2021/12/09 01:34:02;;;;;;;9.23;5.50;;;6.30;99.90;;;;;;10356971;28;20221;-84
2021/12/09 01:39:08;;;;;;;5.10;3.67;;;6.20;99.90;;;;;;10340962;28;20225;-84
2021/12/09 01:44:10;;;;;;;4.27;3.87;;;6.20;99.90;;;;;;10358001;28;20202;-84
2021/12/09 01:49:12;;;;;;;5.50;3.90;;;6.20;99.90;;;;;;10360383;28;20222;-83
2021/12/09 01:54:16;;;;;;;7.00;5.20;;;6.20;99.90;;;;;;10353445;28;20306;-82
2021/12/09 01:59:19;;;;;;;6.43;5.30;;;6.10;99.90;;;;;;10336442;28;20238;-82
2021/12/09 02:04:22;;;;;;;7.50;6.50;;;6.10;99.90;;;;;;10353001;28;20205;-84
2021/12/09 02:09:25;;;;;;;7.77;6.80;;;6.10;99.90;;;;;;10340658;28;20307;-84
2021/12/09 02:14:27;;;;;;;8.77;7.77;;;6.20;99.90;;;;;;10342981;28;20218;-84
2021/12/09 02:19:30;;;;;;;7.67;7.10;;;6.30;99.90;;;;;;10342428;28;20773;-84
2021/12/09 02:24:34;;;;;;;7.70;6.90;;;6.40;99.90;;;;;;10342040;28;20207;-85
2021/12/09 02:29:39;;;;;;;11.90;7.17;;;6.40;99.90;;;;;;10357460;28;20222;-85
2021/12/09 02:34:41;;;;;;;7.97;7.13;;;6.40;99.90;;;;;;10343063;28;20276;-85
2021/12/09 02:39:45;;;;;;;12.87;8.13;;;6.40;99.90;;;;;;10343507;28;20309;-85
2021/12/09 02:44:49;;;;;;;8.07;7.27;;;6.40;99.90;;;;;;10350245;28;20203;-84
2021/12/09 02:49:51;;;;;;;8.17;7.20;;;6.50;99.90;;;;;;10350651;28;20230;-84
2021/12/09 02:54:57;;;;;;;11.20;7.43;;;6.50;99.90;;;;;;10361013;28;20249;-85
2021/12/09 02:59:59;;;;;;;14.83;7.10;;;6.50;99.90;;;;;;10366557;28;20229;-84
2021/12/09 03:05:03;;;;;;;11.23;7.67;;;6.60;99.90;;;;;;10367088;28;20195;-85
2021/12/09 03:10:17;;;;;;;8.17;7.30;;;6.60;99.90;;;;;;10350368;28;20238;-85
2021/12/09 03:15:20;;;;;;;11.70;7.20;;;6.70;99.90;;;;;;10384742;28;20735;-84
2021/12/09 03:20:22;;;;;;;8.30;7.50;;;6.70;99.90;;;;;;10364428;28;20709;-86
2021/12/09 03:25:26;;;;;;;13.30;6.97;;;6.70;99.90;;;;;;10398366;28;20274;-84
2021/12/09 03:30:28;;;;;;;10.87;6.77;;;6.70;99.90;;;;;;10375083;28;20238;-84
2021/12/09 03:35:30;;;;;;;10.87;7.07;;;6.80;99.90;;;;;;10335926;28;20245;-85
2021/12/09 03:40:34;;;;;;;13.40;6.77;;;6.70;99.90;;;;;;10341995;28;20317;-85
2021/12/09 03:45:36;;;;;;;10.40;7.83;;;6.80;99.90;;;;;;10345422;28;20210;-84
2021/12/09 03:50:39;;;;;;;10.50;7.33;;;6.80;99.90;;;;;;10347091;28;20226;-84
2021/12/09 03:55:42;;;;;;;8.03;7.10;;;6.80;99.90;;;;;;10382159;28;20268;-85
2021/12/09 04:06:46;;;;;;;8.53;7.50;;;6.80;99.90;;;;;;10194662;28;20242;-85
2021/12/09 04:11:51;;;;;;;8.20;7.40;;;6.80;99.90;;;;;;10364401;28;20194;-84
2021/12/09 04:16:53;;;;;;;9.27;7.10;;;6.90;99.90;;;;;;10347496;28;20236;-85
2021/12/09 04:21:55;;;;;;;11.43;6.80;;;6.90;99.90;;;;;;10349633;28;20206;-85
2021/12/09 04:26:58;;;;;;;12.63;8.67;;;6.90;99.90;;;;;;10367740;28;20229;-84
2021/12/09 04:32:01;;;;;;;9.13;8.23;;;6.90;99.90;;;;;;10352165;28;20220;-87
2021/12/09 04:37:04;;;;;;;11.93;10.40;;;6.90;99.90;;;;;;10355142;28;20655;-84
2021/12/09 04:42:08;;;;;;;9.10;7.47;;;6.90;99.90;;;;;;10358062;28;20212;-83
2021/12/09 04:47:10;;;;;;;7.43;6.70;;;6.80;99.90;;;;;;10343262;28;20229;-84
2021/12/09 04:52:12;;;;;;;9.83;6.40;;;6.90;99.90;;;;;;10335849;28;20207;-85
2021/12/09 04:57:16;;;;;;;9.33;6.60;;;6.90;99.90;;;;;;10359327;28;20586;-85
2021/12/09 05:02:27;;;;;;;9.10;6.67;;;6.90;99.90;;;;;;10360421;28;20579;-85
2021/12/09 05:07:29;;;;;;;10.10;6.40;;;6.90;99.90;;;;;;10362277;28;20289;-84
2021/12/09 05:12:32;;;;;;;7.70;5.73;;;6.90;99.90;;;;;;10361367;28;20206;-85
2021/12/09 05:17:35;;;;;;;8.10;5.50;;;6.90;99.90;;;;;;10356141;28;20229;-85
2021/12/09 05:22:38;;;;;;;8.60;5.20;;;6.90;99.90;;;;;;10360097;28;20203;-86
2021/12/09 05:27:42;;;;;;;8.90;5.90;;;6.90;99.90;;;;;;10342954;28;20314;-84
2021/12/09 05:32:44;;;;;;;9.60;5.40;;;6.90;99.90;;;;;;10343069;28;20206;-85
2021/12/09 05:37:48;;;;;;;6.53;5.50;;;6.90;99.90;;;;;;10342400;28;20329;-86
2021/12/09 05:42:51;;;;;;;5.23;4.73;;;6.80;99.90;;;;;;10384617;23;20220;-79
2021/12/09 05:47:53;;;;;;;8.90;5.47;;;6.70;99.90;;;;;;10457163;28;20205;-79
2021/12/09 05:52:56;;;;;;;6.47;5.60;;;6.70;99.90;;;;;;10451217;28;20749;-80
2021/12/09 05:57:59;;;;;;;6.50;5.20;;;6.70;99.90;;;;;;10468816;28;20231;-80
2021/12/09 06:03:01;;;;;;;6.60;4.40;;;6.70;99.90;;;;;;10461009;28;20222;-80
2021/12/09 06:08:04;;;;;;;6.33;4.80;;;6.70;99.90;;;;;;10426755;28;20202;-80
2021/12/09 06:13:10;;;;;;;6.37;5.10;;;6.70;99.90;;;;;;10448432;28;20252;-80
2021/12/09 06:18:12;;;;;;;11.90;5.00;;;6.70;99.90;;;;;;10433765;28;20264;-79
2021/12/09 06:23:14;;;;;;;6.07;4.00;;;6.70;99.90;;;;;;10490261;28;20220;-79
2021/12/09 06:28:18;;;;;;;5.83;4.77;;;6.60;99.90;;;;;;10467550;28;20197;-79
2021/12/09 06:33:20;;;;;;;28.43;19.10;;;6.60;99.90;;;;;;10458177;28;20216;-78
2021/12/09 06:38:23;;;;;;;10.67;7.37;;;6.60;99.90;;;;;;10479896;28;20221;-79
2021/12/09 06:43:27;;;;;;;7.80;6.67;;;6.60;99.90;;;;;;10473853;28;20224;-79
2021/12/09 06:48:29;;;;;;;6.73;5.07;;;6.60;99.90;;;;;;10499953;28;20266;-78
2021/12/09 06:53:31;;;;;;;4.93;4.10;;;6.60;99.90;;;;;;10448537;28;20226;-79
2021/12/09 06:58:36;;;;;;;7.13;4.40;;;6.60;99.90;;;;;;10491214;28;20224;-79
2021/12/09 07:03:39;;;;;;;7.03;4.10;;;6.60;99.90;;;;;;10487784;28;20718;-79
2021/12/09 07:08:45;;;;;;;9.50;4.20;;;6.60;99.90;;;;;;10473166;28;20197;-79
2021/12/09 07:13:49;;;;;;;6.30;4.23;;;6.60;99.90;;;;;;10477857;28;20221;-79
2021/12/09 07:18:51;;;;;;;4.47;3.93;;;6.50;99.90;;;;;;10433642;28;20718;-79
2021/12/09 07:23:54;;;;;;;5.50;4.40;;;6.50;99.90;;;;;;10492218;28;20217;-79
2021/12/09 07:28:57;;;;;;;7.50;5.10;;;6.50;99.90;;;;;;10486510;28;20220;-79
2021/12/09 07:34:00;;;;;;;7.53;4.33;;;6.50;99.90;;;;;;10489271;28;20223;-79
2021/12/09 07:39:02;;;;;;;7.70;4.40;;;6.60;99.90;;;;;;10458728;28;20228;-79
2021/12/09 07:44:07;;;;;;;5.10;4.07;;;6.60;99.90;;;;;;10489957;28;20220;-79
2021/12/09 07:49:09;;;;;;;5.90;5.27;;;6.70;99.90;;;;;;10457726;28;20221;-79
2021/12/09 07:54:11;;;;;;;5.50;4.87;;;6.70;99.90;;;;;;10433249;28;20715;-80
2021/12/09 07:59:15;;;;;;;5.20;4.60;;;6.80;99.90;;;;;;10431263;28;20217;-79
2021/12/09 08:04:18;;;;;;;7.93;5.80;;;6.80;99.90;;;;;;10460344;28;20282;-78
2021/12/09 08:09:20;;;;;;;7.77;4.70;;;6.90;99.90;;;;;;10457226;28;20208;-78
2021/12/09 08:14:23;;;;;;;4.60;4.20;;;6.90;99.90;;;;;;10465232;28;20303;-81
2021/12/09 08:19:26;;;;;;;5.80;4.70;;;6.90;99.90;;;;;;10442850;28;20256;-79
2021/12/09 08:24:28;;;;;;;5.50;4.90;;;6.90;99.90;;;;;;10465306;28;20312;-79
2021/12/09 08:29:31;;;;;;;7.63;4.80;;;6.90;99.90;;;;;;10480731;28;20200;-79
2021/12/09 08:34:33;;;;;;;5.80;5.20;;;7.00;99.90;;;;;;10465282;28;20697;-79
2021/12/09 08:39:36;;;;;;;8.70;5.40;;;7.00;99.90;;;;;;10479856;28;20193;-79
2021/12/09 08:44:39;;;;;;;6.17;4.67;;;7.10;99.90;;;;;;10493855;28;20290;-79
2021/12/09 08:49:41;;;;;;;5.57;5.07;;;7.10;99.90;;;;;;10460111;28;20200;-79
2021/12/09 08:54:44;;;;;;;5.50;4.90;;;7.10;99.90;;;;;;10462732;28;20631;-79
2021/12/09 08:59:47;;;;;;;5.07;4.67;;;7.10;99.90;;;;;;10470663;28;20266;-79
2021/12/09 09:04:50;;;;;;;4.80;4.50;;;7.20;99.90;;;;;;10430984;28;20231;-79
2021/12/09 09:09:52;;;;;;;5.90;4.83;;;7.20;99.90;;;;;;10468621;28;20200;-79
2021/12/09 09:14:56;;;;;;;5.60;4.77;;;7.20;99.90;;;;;;10461209;28;20220;-79
2021/12/09 09:19:58;;;;;;;5.67;4.50;;;7.20;99.90;;;;;;10453833;28;20263;-80
2021/12/09 09:25:01;;;;;;;8.90;5.70;;;7.30;99.90;;;;;;10453372;28;20599;-79
2021/12/09 09:30:05;;;;;;;6.90;4.77;;;7.30;99.90;;;;;;10464405;28;20200;-79
2021/12/09 09:35:09;;;;;;;4.90;4.47;;;7.30;99.90;;;;;;10429312;28;20216;-78
2021/12/09 09:40:14;;;;;;;5.83;5.33;;;7.40;99.90;;;;;;10489835;28;20204;-79
2021/12/09 09:45:18;;;;;;;6.33;5.47;;;7.40;99.90;;;;;;10483720;28;20213;-78
2021/12/09 09:50:20;;;;;;;5.83;5.13;;;7.50;99.90;;;;;;10468066;28;20208;-79
2021/12/09 09:55:22;;;;;;;6.77;5.53;;;7.60;99.90;;;;;;10488448;28;20235;-79
2021/12/09 10:00:28;;;;;;;6.47;5.87;;;7.60;99.90;;;;;;10490835;28;20304;-80
2021/12/09 10:05:36;;;;;;;5.33;4.83;;;7.70;99.90;;;;;;10472432;28;20227;-81
2021/12/09 10:10:39;;;;;;;5.70;5.10;;;7.70;99.90;;;;;;10492314;28;20227;-81
2021/12/09 10:15:46;;;;;;;5.93;5.27;;;7.70;99.90;;;;;;10480071;28;20319;-80
2021/12/09 10:20:52;;;;;;;6.37;5.53;;;7.80;99.90;;;;;;10489921;28;20234;-81
2021/12/09 10:26:21;;;;;;;6.93;5.73;;;7.80;99.90;;;;;;10470075;28;20220;-80
2021/12/09 10:31:29;;;;;;;5.90;5.30;;;7.80;99.90;;;;;;10503034;28;20291;-80
2021/12/09 10:36:52;;;;;;;8.93;4.97;;;7.90;99.90;;;;;;10514230;28;20208;-81
2021/12/09 10:41:56;;;;;;;5.03;4.57;;;8.00;99.90;;;;;;10454345;28;20274;-81
2021/12/09 10:53:52;;;;;;;6.00;5.30;;;8.10;99.90;;;;;;10291280;28;20784;-81
2021/12/09 10:58:55;;;;;;;5.83;5.20;;;8.10;99.90;;;;;;10452414;28;20221;-81
2021/12/09 11:04:00;;;;;;;5.53;4.17;;;8.10;99.90;;;;;;10445033;28;20263;-80
2021/12/09 11:09:06;;;;;;;6.67;4.50;;;8.10;99.90;;;;;;10443978;28;20231;-81
2021/12/09 11:14:12;;;;;;;4.33;3.93;;;8.10;99.90;;;;;;10471603;28;20602;-82
2021/12/09 11:19:20;;;;;;;4.00;3.63;;;8.20;99.90;;;;;;10488504;28;20254;-82
2021/12/09 11:24:23;;;;;;;4.40;3.97;;;8.20;99.90;;;;;;10456604;28;20638;-81
2021/12/09 11:29:28;;;;;;;7.63;4.33;;;8.20;99.90;;;;;;10489317;28;20196;-83
2021/12/09 11:34:43;;;;;;;4.37;3.90;;;8.30;99.90;;;;;;10488921;28;20633;-81
2021/12/09 11:39:47;;;;;;;5.10;4.10;;;8.30;99.90;;;;;;10468880;28;20230;-80
2021/12/09 11:44:50;;;;;;;6.90;3.57;;;8.40;99.90;;;;;;10505618;22;20225;-80
2021/12/09 11:49:54;;;;;;;6.60;4.17;;;8.40;99.90;;;;;;10521257;28;20223;-81
2021/12/09 11:55:00;;;;;;;3.53;3.13;;;8.50;99.90;;;;;;10462155;28;20225;-80
2021/12/09 12:11:18;;;;;;;5.67;3.90;;;8.50;99.90;;;;;;10437678;28;20204;-82
2021/12/09 12:16:41;;;;;;;7.00;4.17;;;8.50;99.90;;;;;;10458349;28;20569;-82
2021/12/09 12:22:00;;;;;;;9.30;5.00;;;8.50;99.90;;;;;;10466058;28;20208;-83
2021/12/09 12:27:06;;;;;;;4.17;3.70;;;8.40;99.90;;;;;;10430473;28;20202;-83
2021/12/09 12:32:31;;;;;;;5.40;3.97;;;8.50;99.90;;;;;;10443823;28;20232;-82
2021/12/09 12:37:48;;;;;;;3.70;3.30;;;8.50;99.90;;;;;;10422486;28;20216;-83
2021/12/09 12:42:55;;;;;;;5.03;3.60;;;8.40;99.90;;;;;;10439559;28;20229;-82
2021/12/09 12:48:13;;;;;;;11.37;3.90;;;8.50;99.90;;;;;;10465963;28;20653;-81
2021/12/09 12:53:37;;;;;;;5.53;3.07;;;8.50;99.90;;;;;;10413226;28;20645;-82
2021/12/09 12:58:40;;;;;;;4.87;2.80;;;8.40;99.90;;;;;;10457435;28;20220;-82
2021/12/09 13:03:47;;;;;;;4.50;3.10;;;8.40;99.90;;;;;;10465230;28;20304;-82
2021/12/09 13:09:08;;;;;;;3.50;2.77;;;8.40;99.90;;;;;;10417765;28;20232;-82
2021/12/09 13:14:19;;;;;;;5.90;3.40;;;8.40;99.90;;;;;;10424842;28;20235;-83
2021/12/09 13:19:37;;;;;;;4.37;2.90;;;8.40;99.90;;;;;;10456535;28;20217;-82
2021/12/09 13:24:47;;;;;;;6.33;3.43;;;8.50;99.90;;;;;;10429808;28;20635;-82
2021/12/09 13:30:16;;;;;;;7.93;3.20;;;8.40;99.90;;;;;;10415667;28;20197;-82
2021/12/09 13:35:28;;;;;;;5.37;3.40;;;8.40;99.90;;;;;;10405657;28;20225;-82
2021/12/09 13:45:49;;;;;;;4.00;3.40;;;8.40;99.90;;;;;;10400825;28;20704;-82
2021/12/09 13:46:11;;;;;;;8.33;4.40;;;8.40;99.90;;;;;;10385778;28;20220;-81
2021/12/09 13:51:30;;;;;;;10.83;4.47;;;8.50;99.90;;;;;;10403369;28;20221;-82
2021/12/09 13:56:34;;;;;;;6.80;4.90;;;8.40;99.90;;;;;;10400105;28;20245;-83
2021/12/09 14:01:36;;;;;;;5.67;3.80;;;8.40;99.90;;;;;;10390110;28;20201;-80
2021/12/09 14:06:47;;;;;;;6.13;3.87;;;8.30;99.90;;;;;;10413239;28;20228;-83
2021/12/09 14:11:51;;;;;;;5.33;2.80;;;8.40;99.90;;;;;;10396153;28;20255;-80
2021/12/09 14:16:57;;;;;;;5.33;2.90;;;8.40;99.90;;;;;;10422333;28;20275;-83
2021/12/09 14:22:00;;;;;;;5.63;3.23;;;8.40;99.90;;;;;;10437979;28;20202;-83
2021/12/09 14:27:11;;;;;;;5.53;3.10;;;8.40;99.90;;;;;;10428152;28;20693;-83
2021/12/09 14:32:13;;;;;;;6.47;3.27;;;8.40;99.90;;;;;;10452798;28;20205;-82
2021/12/09 14:37:17;;;;;;;6.10;3.03;;;8.40;99.90;;;;;;10460877;28;20300;-83
2021/12/09 14:42:21;;;;;;;3.93;3.13;;;8.30;99.90;;;;;;10432342;28;20212;-83
2021/12/09 14:47:24;;;;;;;8.80;3.70;;;8.30;99.90;;;;;;10406756;28;20235;-82
2021/12/09 14:52:28;;;;;;;5.50;2.70;;;8.30;99.90;;;;;;10411683;28;20303;-83
2021/12/09 14:57:32;;;;;;;5.53;3.20;;;8.30;99.90;;;;;;10429424;28;20325;-82
2021/12/09 15:02:43;;;;;;;5.03;3.73;;;8.20;99.90;;;;;;10470601;28;20221;-83
2021/12/09 15:07:50;;;;;;;7.60;3.70;;;8.20;99.90;;;;;;10451344;28;20654;-83
2021/12/09 15:13:00;;;;;;;3.90;2.90;;;8.20;99.90;;;;;;10477635;28;20605;-83
2021/12/09 15:18:04;;;;;;;5.33;3.30;;;8.20;99.90;;;;;;10459631;28;20796;-84
2021/12/09 15:23:11;;;;;;;6.33;3.43;;;8.10;99.90;;;;;;10488904;28;20240;-83
2021/12/09 15:28:19;;;;;;;7.77;4.40;;;8.00;99.90;;;;;;10443179;28;20281;-83
2021/12/09 15:33:25;;;;;;;5.70;4.00;;;7.90;99.90;;;;;;10430035;28;20224;-82
2021/12/09 15:38:28;;;;;;;6.57;4.23;;;7.80;99.90;;;;;;10446630;28;20233;-81
2021/12/09 15:43:31;;;;;;;8.97;3.30;;;7.70;99.90;;;;;;10452612;28;20229;-81
2021/12/09 15:48:36;;;;;;;7.03;3.77;;;7.60;99.90;;;;;;10435998;28;20194;-81
2021/12/09 15:53:41;;;;;;;6.57;4.20;;;7.50;99.90;;;;;;10431951;28;20688;-81
2021/12/09 15:58:45;;;;;;;6.20;3.83;;;7.50;99.90;;;;;;10445656;28;20229;-82
2021/12/09 16:03:48;;;;;;;9.00;3.93;;;7.40;99.90;;;;;;10425727;28;20260;-81
2021/12/09 16:08:50;;;;;;;4.50;4.10;;;7.40;99.90;;;;;;10446211;28;20209;-82
2021/12/09 16:13:59;;;;;;;5.23;3.37;;;7.40;99.90;;;;;;10459884;28;20221;-82
2021/12/09 16:19:03;;;;;;;6.77;3.67;;;7.40;99.90;;;;;;10439712;28;20315;-81
2021/12/09 16:24:06;;;;;;;6.10;3.20;;;7.40;99.90;;;;;;10441382;28;20593;-82
2021/12/09 16:29:09;;;;;;;9.00;3.60;;;7.40;99.90;;;;;;10438428;28;20229;-82
2021/12/09 16:34:11;;;;;;;10.10;4.20;;;7.40;99.90;;;;;;10447405;28;20230;-82
2021/12/09 16:39:14;;;;;;;6.90;3.90;;;7.30;99.90;;;;;;10417003;28;20773;-83
2021/12/09 16:44:17;;;;;;;7.43;3.90;;;7.30;99.90;;;;;;10439427;28;20263;-83
2021/12/09 16:49:21;;;;;;;8.37;4.30;;;7.30;99.90;;;;;;10421371;28;20212;-83
2021/12/09 16:54:29;;;;;;;10.03;4.40;;;7.20;99.90;;;;;;10426491;28;20229;-83
2021/12/09 16:59:32;;;;;;;6.50;4.37;;;7.20;99.90;;;;;;10417333;28;20229;-82
2021/12/09 17:04:35;;;;;;;7.17;4.50;;;7.20;99.90;;;;;;10411837;28;20232;-82
2021/12/09 17:09:38;;;;;;;6.93;4.77;;;7.20;99.90;;;;;;10443144;28;20201;-84
2021/12/09 17:14:42;;;;;;;6.83;4.10;;;7.20;99.90;;;;;;10425218;28;20727;-82
2021/12/09 17:19:44;;;;;;;4.20;3.57;;;7.10;99.90;;;;;;10443044;28;20224;-82
2021/12/09 17:24:47;;;;;;;6.50;3.50;;;7.10;99.90;;;;;;10451596;28;20253;-84
2021/12/09 17:29:50;;;;;;;7.17;4.23;;;7.10;99.90;;;;;;10408372;28;20465;-85
2021/12/09 17:34:52;;;;;;;4.70;3.40;;;7.10;99.90;;;;;;10407179;28;20220;-84
2021/12/09 17:39:54;;;;;;;5.87;3.97;;;7.00;99.90;;;;;;10399456;28;20221;-84
2021/12/09 17:44:58;;;;;;;5.43;3.87;;;7.00;99.90;;;;;;10397171;28;20222;-84
2021/12/09 17:50:02;;;;;;;9.00;3.60;;;7.10;99.90;;;;;;10424239;28;20189;-84
2021/12/09 17:55:08;;;;;;;11.67;4.00;;;7.00;99.90;;;;;;10407528;28;20248;-82
2021/12/09 18:00:19;;;;;;;10.07;4.30;;;6.90;99.90;;;;;;10434388;28;20237;-84
2021/12/09 18:05:23;;;;;;;8.23;3.80;;;6.70;99.90;;;;;;10431164;28;20225;-84
2021/12/09 18:10:27;;;;;;;4.37;3.10;;;6.50;99.90;;;;;;10434494;28;20202;-82
2021/12/09 18:15:35;;;;;;;8.50;4.20;;;6.40;99.90;;;;;;10448644;28;20744;-83
2021/12/09 18:20:38;;;;;;;5.60;4.10;;;6.40;99.90;;;;;;10454923;28;20228;-84
2021/12/09 18:25:43;;;;;;;7.13;3.80;;;6.30;99.90;;;;;;10466129;28;20225;-83
2021/12/09 18:30:47;;;;;;;6.50;4.27;;;6.30;99.90;;;;;;10457477;28;20205;-85
2021/12/09 18:35:51;;;;;;;9.47;3.70;;;6.30;99.90;;;;;;10441661;28;20248;-84
2021/12/09 18:40:57;;;;;;;6.63;4.40;;;6.40;99.90;;;;;;10445449;28;20236;-83
2021/12/09 18:46:03;;;;;;;7.43;3.83;;;6.40;99.90;;;;;;10477342;28;20240;-84
2021/12/09 18:51:13;;;;;;;7.77;4.00;;;6.40;99.90;;;;;;10455019;28;20284;-83
2021/12/09 18:56:15;;;;;;;7.43;4.33;;;6.40;99.90;;;;;;10452574;28;20728;-82
2021/12/09 19:01:19;;;;;;;10.47;4.03;;;6.40;99.90;;;;;;10439555;28;20225;-84
2021/12/09 19:06:22;;;;;;;6.80;3.67;;;6.40;99.90;;;;;;10454196;28;20231;-84
2021/12/09 19:11:24;;;;;;;7.07;4.13;;;6.40;99.90;;;;;;10426614;28;20711;-82
2021/12/09 19:16:37;;;;;;;8.80;4.17;;;6.40;99.90;;;;;;10452260;28;20235;-82
2021/12/09 19:21:41;;;;;;;6.60;4.27;;;6.40;99.90;;;;;;10434006;28;20221;-82
2021/12/09 19:26:44;;;;;;;8.53;4.50;;;6.40;99.90;;;;;;10453094;28;20248;-83
2021/12/09 19:31:48;;;;;;;5.27;4.10;;;6.50;99.90;;;;;;10424148;28;20578;-82
2021/12/09 19:36:51;;;;;;;9.73;4.40;;;6.50;99.90;;;;;;10442275;28;20312;-82
2021/12/09 19:41:54;;;;;;;8.90;4.30;;;6.50;99.90;;;;;;10444717;28;20271;-82
2021/12/09 19:46:57;;;;;;;10.40;4.70;;;6.60;99.90;;;;;;10426096;28;20260;-83
2021/12/09 19:52:00;;;;;;;5.23;4.13;;;6.60;99.90;;;;;;10447310;28;20398;-82
2021/12/09 19:57:11;;;;;;;6.97;4.20;;;6.60;99.90;;;;;;10430233;28;20244;-82
2021/12/09 20:02:15;;;;;;;7.50;4.40;;;6.60;99.90;;;;;;10464777;28;20197;-83
2021/12/09 20:07:18;;;;;;;7.87;4.07;;;6.60;99.90;;;;;;10417232;28;20198;-82
2021/12/09 20:12:20;;;;;;;3.90;3.23;;;6.60;99.90;;;;;;10413335;28;20252;-83
2021/12/09 20:17:23;;;;;;;4.30;3.90;;;6.60;99.90;;;;;;10438058;28;20219;-83
2021/12/09 20:22:27;;;;;;;7.43;3.70;;;6.60;99.90;;;;;;10456046;28;20742;-84
2021/12/09 20:27:30;;;;;;;3.70;3.33;;;6.50;99.90;;;;;;10420370;28;20248;-83
2021/12/09 20:32:35;;;;;;;5.53;3.33;;;6.60;99.90;;;;;;10419918;28;20274;-83
2021/12/09 20:37:37;;;;;;;5.60;3.70;;;6.60;99.90;;;;;;10440807;28;20745;-82
2021/12/09 20:42:40;;;;;;;6.63;3.73;;;6.50;99.90;;;;;;10418474;28;20725;-82
2021/12/09 20:47:49;;;;;;;5.50;3.93;;;6.50;99.90;;;;;;10436941;28;20220;-83
2021/12/09 20:52:52;;;;;;;6.60;4.10;;;6.40;99.90;;;;;;10441750;28;20241;-82
2021/12/09 20:57:54;;;;;;;5.57;3.67;;;6.40;99.90;;;;;;10439611;28;20225;-82
2021/12/09 21:02:58;;;;;;;4.60;3.50;;;6.40;99.90;;;;;;10444674;28;20225;-83
2021/12/09 21:08:00;;;;;;;4.40;3.87;;;6.30;99.90;;;;;;10428662;28;20284;-82
2021/12/09 21:13:03;;;;;;;3.83;3.53;;;6.40;99.90;;;;;;10398133;28;20226;-79
2021/12/09 21:18:07;;;;;;;4.37;3.40;;;6.30;99.90;;;;;;10413809;28;20213;-81
2021/12/09 21:23:11;;;;;;;6.80;3.50;;;6.30;99.90;;;;;;10447769;28;20359;-80
2021/12/09 21:28:17;;;;;;;3.63;3.30;;;6.30;99.90;;;;;;10420453;28;20208;-80
2021/12/09 21:33:26;;;;;;;4.40;3.67;;;6.40;99.90;;;;;;10413863;28;20570;-81
2021/12/09 21:38:29;;;;;;;4.83;3.27;;;6.30;99.90;;;;;;10459846;28;20217;-81
2021/12/09 21:43:37;;;;;;;5.93;3.80;;;6.40;99.90;;;;;;10420684;28;20261;-81
2021/12/09 21:48:41;;;;;;;5.50;3.70;;;6.40;99.90;;;;;;10424750;28;20193;-81
2021/12/09 21:53:43;;;;;;;5.13;4.03;;;6.40;99.90;;;;;;10435367;28;20712;-81
2021/12/09 21:58:48;;;;;;;4.73;3.73;;;6.40;99.90;;;;;;10413254;28;20261;-81
2021/12/09 22:03:53;;;;;;;7.50;3.63;;;6.40;99.90;;;;;;10436106;28;20245;-80
2021/12/09 22:08:57;;;;;;;6.20;3.13;;;6.40;99.90;;;;;;10453466;28;20201;-81
2021/12/09 22:14:00;;;;;;;4.67;3.20;;;6.40;99.90;;;;;;10437877;28;20753;-81
2021/12/09 22:19:12;;;;;;;3.50;3.20;;;6.30;99.90;;;;;;10440891;28;20300;-81
2021/12/09 22:24:17;;;;;;;6.57;4.00;;;6.30;99.90;;;;;;10414772;28;20706;-80
2021/12/09 22:29:20;;;;;;;5.33;3.30;;;6.30;99.90;;;;;;10405036;28;20650;-81
2021/12/09 22:34:23;;;;;;;5.37;3.60;;;6.30;99.90;;;;;;10415250;28;20227;-81
2021/12/09 22:39:30;;;;;;;8.60;3.50;;;6.30;99.90;;;;;;10441177;28;20221;-82
2021/12/09 22:44:33;;;;;;;5.07;3.40;;;6.30;99.90;;;;;;10443234;28;20225;-81
2021/12/09 22:49:40;;;;;;;6.37;4.40;;;6.30;99.90;;;;;;10453797;28;20286;-81
2021/12/09 22:54:44;;;;;;;3.47;3.20;;;6.30;99.90;;;;;;10435430;28;20704;-81
2021/12/09 22:59:49;;;;;;;6.63;3.97;;;6.30;99.90;;;;;;10414940;28;20218;-81
2021/12/09 23:04:53;;;;;;;4.17;3.10;;;6.30;99.90;;;;;;10437595;28;20704;-80
2021/12/09 23:10:00;;;;;;;7.20;3.43;;;6.30;99.90;;;;;;10463605;28;20197;-82
2021/12/09 23:15:03;;;;;;;5.70;3.77;;;6.30;99.90;;;;;;10440913;28;20221;-80
2021/12/09 23:20:10;;;;;;;3.70;3.20;;;6.30;99.90;;;;;;10438868;28;20221;-81
2021/12/09 23:25:12;;;;;;;4.00;3.07;;;6.20;99.90;;;;;;10444850;28;20218;-81
2021/12/09 23:30:14;;;;;;;4.70;2.97;;;6.20;99.90;;;;;;10449534;28;20204;-80
2021/12/09 23:35:18;;;;;;;6.70;4.00;;;6.30;99.90;;;;;;10443208;28;20227;-80
2021/12/09 23:40:24;;;;;;;5.77;3.03;;;6.20;99.90;;;;;;10426406;28;20225;-79
2021/12/09 23:45:26;;;;;;;4.20;3.47;;;6.20;99.90;;;;;;10441506;28;20642;-78
2021/12/09 23:50:30;;;;;;;4.70;3.83;;;6.20;99.90;;;;;;10399319;28;20288;-79
2021/12/09 23:55:32;;;;;;;3.23;3.03;;;6.20;99.90;;;;;;10436848;28;20253;-79
